sensor_id;sensor_type;location;lat;lon;timestamp;pressure;altitude;pressure_sealevel;temperature;humidity
21664;BME280;10993;52.510;13.456;2023-10-08T00:02:48;79088.97;;;-146.93;100.00
21664;BME280;10993;52.510;13.456;2023-10-08T00:07:48;78306.41;;;-146.93;100.00
21664;BME280;10993;52.510;13.456;2023-10-08T00:12:50;78045.59;;;-146.93;100.00
21664;BME280;10993;52.510;13.456;2023-10-08T00:17:51;77263.31;;;-146.93;100.00
21664;BME280;10993;52.510;13.456;2023-10-08T00:22:54;73464.34;;;-146.93;100.00
21664;BME280;10993;52.510;13.456;2023-10-08T00:27:57;72874.31;;;-146.93;100.00
21664;BME280;10993;52.510;13.456;2023-10-08T00:32:58;71051.97;;;-146.93;100.00
21664;BME280;10993;52.510;13.456;2023-10-08T00:37:58;71521.69;;;-146.93;100.00
21664;BME280;10993;52.510;13.456;2023-10-08T00:43:02;69787.47;;;-146.93;100.00
21664;BME280;10993;52.510;13.456;2023-10-08T00:48:10;71548.13;;;-146.93;100.00
21664;BME280;10993;52.510;13.456;2023-10-08T00:53:16;71027.56;;;-146.93;100.00
21664;BME280;10993;52.510;13.456;2023-10-08T00:58:23;70934.03;;;-146.93;100.00
21664;BME280;10993;52.510;13.456;2023-10-08T01:03:27;69889.09;;;-146.93;100.00
21664;BME280;10993;52.510;13.456;2023-10-08T01:08:27;69523.25;;;-146.93;100.00
21664;BME280;10993;52.510;13.456;2023-10-08T01:13:38;69868.78;;;-146.93;100.00
21664;BME280;10993;52.510;13.456;2023-10-08T01:18:44;69543.56;;;-146.93;100.00
21664;BME280;10993;52.510;13.456;2023-10-08T01:23:51;69984.66;;;-146.93;100.00
21664;BME280;10993;52.510;13.456;2023-10-08T01:28:54;70783.59;;;-146.93;100.00
21664;BME280;10993;52.510;13.456;2023-10-08T01:33:54;73220.19;;;-146.93;100.00
21664;BME280;10993;52.510;13.456;2023-10-08T01:38:58;73875.38;;;-146.93;100.00
21664;BME280;10993;52.510;13.456;2023-10-08T01:43:59;72792.94;;;-146.93;100.00
21664;BME280;10993;52.510;13.456;2023-10-08T01:48:59;71790.16;;;-146.93;100.00
21664;BME280;10993;52.510;13.456;2023-10-08T01:54:06;70944.22;;;-146.93;100.00
21664;BME280;10993;52.510;13.456;2023-10-08T01:59:13;67534.09;;;-146.93;100.00
21664;BME280;10993;52.510;13.456;2023-10-08T02:04:14;66610.00;;;-146.93;100.00
21664;BME280;10993;52.510;13.456;2023-10-08T02:09:17;67934.28;;;-146.93;100.00
21664;BME280;10993;52.510;13.456;2023-10-08T02:14:25;68594.56;;;-146.93;100.00
21664;BME280;10993;52.510;13.456;2023-10-08T02:19:28;68381.22;;;-146.93;100.00
21664;BME280;10993;52.510;13.456;2023-10-08T02:24:30;70413.56;;;-146.93;100.00
21664;BME280;10993;52.510;13.456;2023-10-08T02:29:30;72178.63;;;-146.93;100.00
21664;BME280;10993;52.510;13.456;2023-10-08T02:34:31;71686.44;;;-146.93;100.00
21664;BME280;10993;52.510;13.456;2023-10-08T02:39:32;70478.63;;;-146.93;100.00
21664;BME280;10993;52.510;13.456;2023-10-08T02:44:35;72837.69;;;-146.93;100.00
21664;BME280;10993;52.510;13.456;2023-10-08T02:49:35;73330.06;;;-146.93;100.00
21664;BME280;10993;52.510;13.456;2023-10-08T02:54:38;74034.13;;;-146.93;100.00
21664;BME280;10993;52.510;13.456;2023-10-08T02:59:38;77002.59;;;-146.93;100.00
21664;BME280;10993;52.510;13.456;2023-10-08T03:04:43;76741.88;;;-146.93;100.00
21664;BME280;10993;52.510;13.456;2023-10-08T03:09:48;73696.31;;;-146.93;100.00
21664;BME280;10993;52.510;13.456;2023-10-08T03:14:50;72764.47;;;-146.93;100.00
21664;BME280;10993;52.510;13.456;2023-10-08T03:20:01;70934.03;;;-146.93;100.00
21664;BME280;10993;52.510;13.456;2023-10-08T03:25:23;70112.72;;;-146.93;100.00
21664;BME280;10993;52.510;13.456;2023-10-08T03:30:24;70897.44;;;-146.93;100.00
21664;BME280;10993;52.510;13.456;2023-10-08T03:35:26;71247.19;;;-146.93;100.00
21664;BME280;10993;52.510;13.456;2023-10-08T03:40:38;71875.56;;;-146.93;100.00
21664;BME280;10993;52.510;13.456;2023-10-08T03:45:44;72125.75;;;-146.93;100.00
21664;BME280;10993;52.510;13.456;2023-10-08T03:50:54;69029.41;;;-146.93;100.00
21664;BME280;10993;52.510;13.456;2023-10-08T03:56:08;73183.56;;;-146.93;100.00
21664;BME280;10993;52.510;13.456;2023-10-08T04:01:08;74042.25;;;-146.93;100.00
21664;BME280;10993;52.510;13.456;2023-10-08T04:06:10;74396.38;;;-146.93;100.00
21664;BME280;10993;52.510;13.456;2023-10-08T04:11:17;75438.63;;;-146.93;100.00
21664;BME280;10993;52.510;13.456;2023-10-08T04:16:42;76220.50;;;-146.93;100.00
21664;BME280;10993;52.510;13.456;2023-10-08T04:21:42;78045.59;;;-146.93;100.00
21664;BME280;10993;52.510;13.456;2023-10-08T04:26:44;80132.63;;;-146.93;100.00
21664;BME280;10993;52.510;13.456;2023-10-08T04:31:44;82482.03;;;-146.93;100.00
21664;BME280;10993;52.510;13.456;2023-10-08T04:36:46;80654.56;;;-146.93;100.00
21664;BME280;10993;52.510;13.456;2023-10-08T04:41:49;77784.81;;;-146.93;100.00
21664;BME280;10993;52.510;13.456;2023-10-08T04:46:54;77524.06;;;-146.93;100.00
21664;BME280;10993;52.510;13.456;2023-10-08T04:51:56;78045.59;;;-146.93;100.00
21664;BME280;10993;52.510;13.456;2023-10-08T04:56:59;76481.19;;;-146.93;100.00
21664;BME280;10993;52.510;13.456;2023-10-08T05:02:01;78567.25;;;-146.93;100.00
21664;BME280;10993;52.510;13.456;2023-10-08T05:07:24;81698.72;;;-146.93;100.00
21664;BME280;10993;52.510;13.456;2023-10-08T05:12:28;81176.59;;;-146.93;100.00
21664;BME280;10993;52.510;13.456;2023-10-08T05:17:38;82220.91;;;-146.93;100.00
21664;BME280;10993;52.510;13.456;2023-10-08T05:22:50;81176.59;;;-146.93;100.00
21664;BME280;10993;52.510;13.456;2023-10-08T05:27:57;80915.56;;;-146.93;100.00
21664;BME280;10993;52.510;13.456;2023-10-08T05:32:58;81437.66;;;-146.93;100.00
21664;BME280;10993;52.510;13.456;2023-10-08T05:38:24;83004.31;;;-146.93;100.00
21664;BME280;10993;52.510;13.456;2023-10-08T05:43:33;80915.56;;;-146.93;100.00
21664;BME280;10993;52.510;13.456;2023-10-08T05:48:39;80915.56;;;-146.93;100.00
21664;BME280;10993;52.510;13.456;2023-10-08T05:53:45;82743.16;;;-146.93;100.00
21664;BME280;10993;52.510;13.456;2023-10-08T05:58:50;85878.44;;;-146.93;100.00
21664;BME280;10993;52.510;13.456;2023-10-08T06:04:10;86662.69;;;-146.93;100.00
21664;BME280;10993;52.510;13.456;2023-10-08T06:09:29;83526.72;;;-146.93;100.00
21664;BME280;10993;52.510;13.456;2023-10-08T06:14:39;83265.50;;;-146.93;100.00
21664;BME280;10993;52.510;13.456;2023-10-08T06:19:58;78567.25;;;-146.93;100.00
21664;BME280;10993;52.510;13.456;2023-10-08T06:24:58;86924.16;;;-146.93;100.00
21664;BME280;10993;52.510;13.456;2023-10-08T06:30:18;84833.03;;;-146.93;100.00
21664;BME280;10993;52.510;13.456;2023-10-08T06:35:18;62660.59;;;-146.93;100.00
21664;BME280;10993;52.510;13.456;2023-10-08T06:40:19;58910.25;;;-146.93;100.00
21664;BME280;10993;52.510;13.456;2023-10-08T06:45:43;57715.06;;;-146.93;97.52
21664;BME280;10993;52.510;13.456;2023-10-08T06:50:44;57233.06;;;-146.93;90.83
21664;BME280;10993;52.510;13.456;2023-10-08T06:55:45;57121.69;;;-146.93;86.02
21664;BME280;10993;52.510;13.456;2023-10-08T07:00:49;57226.97;;;-146.93;79.49
21664;BME280;10993;52.510;13.456;2023-10-08T07:05:50;57170.28;;;-146.93;67.24
21664;BME280;10993;52.510;13.456;2023-10-08T07:11:02;57336.34;;;-146.93;65.29
21664;BME280;10993;52.510;13.456;2023-10-08T07:16:08;57579.38;;;-146.93;53.05
21664;BME280;10993;52.510;13.456;2023-10-08T07:21:11;57976.34;;;-146.93;43.49
21664;BME280;10993;52.510;13.456;2023-10-08T07:26:14;58225.50;;;-146.93;42.97
21664;BME280;10993;52.510;13.456;2023-10-08T07:31:20;58661.06;;;-146.93;38.24
21664;BME280;10993;52.510;13.456;2023-10-08T07:36:21;59015.59;;;-146.93;36.98
21664;BME280;10993;52.510;13.456;2023-10-08T07:41:21;59240.53;;;-146.93;35.02
21664;BME280;10993;52.510;13.456;2023-10-08T07:46:23;59380.34;;;-146.93;33.60
21664;BME280;10993;52.510;13.456;2023-10-08T07:51:26;59447.22;;;-146.93;33.33
21664;BME280;10993;52.510;13.456;2023-10-08T07:56:27;59647.81;;;-146.93;32.64
21664;BME280;10993;52.510;13.456;2023-10-08T08:01:29;59903.19;;;-146.93;30.54
21664;BME280;10993;52.510;13.456;2023-10-08T08:06:29;59963.97;;;-146.93;30.96
21664;BME280;10993;52.510;13.456;2023-10-08T08:11:32;60233.53;;;-146.93;29.52
21664;BME280;10993;52.510;13.456;2023-10-08T08:16:38;60347.06;;;-146.93;29.91
21664;BME280;10993;52.510;13.456;2023-10-08T08:21:38;60385.56;;;-146.93;28.50
21664;BME280;10993;52.510;13.456;2023-10-08T08:26:45;59864.66;;;-146.93;28.23
21664;BME280;10993;52.510;13.456;2023-10-08T08:32:03;58964.94;;;-146.93;29.96
21664;BME280;10993;52.510;13.456;2023-10-08T08:37:04;59064.22;;;-146.93;28.36
21664;BME280;10993;52.510;13.456;2023-10-08T08:42:05;59795.78;;;-146.93;28.71
21664;BME280;10993;52.510;13.456;2023-10-08T08:47:07;60012.63;;;-146.93;27.07
21664;BME280;10993;52.510;13.456;2023-10-08T08:52:11;58829.22;;;-146.93;28.07
21664;BME280;10993;52.510;13.456;2023-10-08T08:57:13;59761.31;;;-146.93;26.45
21664;BME280;10993;52.510;13.456;2023-10-08T09:02:17;60655.16;;;-146.93;26.35
21664;BME280;10993;52.510;13.456;2023-10-08T09:07:19;61423.53;;;-146.93;25.26
21664;BME280;10993;52.510;13.456;2023-10-08T09:12:21;61577.63;;;-146.93;25.04
21664;BME280;10993;52.510;13.456;2023-10-08T09:17:23;61064.66;;;-146.93;23.89
21664;BME280;10993;52.510;13.456;2023-10-08T09:22:25;60626.78;;;-146.93;24.18
21664;BME280;10993;52.510;13.456;2023-10-08T09:27:27;61095.09;;;-146.93;24.14
21664;BME280;10993;52.510;13.456;2023-10-08T09:32:30;60630.84;;;-146.93;23.49
21664;BME280;10993;52.510;13.456;2023-10-08T09:37:31;60065.31;;;-146.93;23.96
21664;BME280;10993;52.510;13.456;2023-10-08T09:42:35;60894.38;;;-146.93;23.77
21664;BME280;10993;52.510;13.456;2023-10-08T09:47:38;60563.94;;;-146.93;23.16
21664;BME280;10993;52.510;13.456;2023-10-08T09:52:49;60122.06;;;-146.93;23.06
21664;BME280;10993;52.510;13.456;2023-10-08T09:57:51;59441.13;;;-146.93;23.31
21664;BME280;10993;52.510;13.456;2023-10-08T10:02:53;60340.97;;;-146.93;23.31
21664;BME280;10993;52.510;13.456;2023-10-08T10:07:54;60537.59;;;-146.93;23.31
21664;BME280;10993;52.510;13.456;2023-10-08T10:12:57;60780.84;;;-146.93;22.12
21664;BME280;10993;52.510;13.456;2023-10-08T10:18:08;60087.63;;;-146.93;22.63
21664;BME280;10993;52.510;13.456;2023-10-08T10:23:40;60215.31;;;-146.93;22.55
21664;BME280;10993;52.510;13.456;2023-10-08T10:28:40;60284.22;;;-146.93;23.35
21664;BME280;10993;52.510;13.456;2023-10-08T10:33:42;60857.88;;;-146.93;21.78
21664;BME280;10993;52.510;13.456;2023-10-08T10:38:42;60616.66;;;-146.93;20.88
21664;BME280;10993;52.510;13.456;2023-10-08T10:43:43;60766.66;;;-146.93;21.72
21664;BME280;10993;52.510;13.456;2023-10-08T10:48:54;60718.00;;;-146.93;21.66
21664;BME280;10993;52.510;13.456;2023-10-08T10:54:18;60851.81;;;-146.93;21.09
21664;BME280;10993;52.510;13.456;2023-10-08T10:59:21;60065.31;;;-146.93;21.71
21664;BME280;10993;52.510;13.456;2023-10-08T11:04:28;60249.75;;;-146.93;21.42
21664;BME280;10993;52.510;13.456;2023-10-08T11:09:31;60095.72;;;-146.93;21.78
21664;BME280;10993;52.510;13.456;2023-10-08T11:14:39;59465.44;;;-146.93;21.54
21664;BME280;10993;52.510;13.456;2023-10-08T11:19:44;59301.31;;;-146.93;21.91
21664;BME280;10993;52.510;13.456;2023-10-08T11:24:48;59435.03;;;-146.93;21.63
21664;BME280;10993;52.510;13.456;2023-10-08T11:29:49;59204.03;;;-146.93;21.68
21664;BME280;10993;52.510;13.456;2023-10-08T11:34:59;59978.16;;;-146.93;20.85
21664;BME280;10993;52.510;13.456;2023-10-08T11:40:00;59807.94;;;-146.93;21.01
21664;BME280;10993;52.510;13.456;2023-10-08T11:45:09;59426.94;;;-146.93;22.41
21664;BME280;10993;52.510;13.456;2023-10-08T11:50:20;59737.00;;;-146.93;22.03
21664;BME280;10993;52.510;13.456;2023-10-08T11:55:20;59272.94;;;-146.93;22.44
21664;BME280;10993;52.510;13.456;2023-10-08T12:00:21;58863.66;;;-146.93;22.52
21664;BME280;10993;52.510;13.456;2023-10-08T12:05:26;58369.31;;;-146.93;24.92
21664;BME280;10993;52.510;13.456;2023-10-08T12:10:29;58176.88;;;-146.93;25.01
21664;BME280;10993;52.510;13.456;2023-10-08T12:15:34;58063.44;;;-146.93;25.30
21664;BME280;10993;52.510;13.456;2023-10-08T12:20:40;57925.72;;;-146.93;26.66
21664;BME280;10993;52.510;13.456;2023-10-08T12:25:44;57660.38;;;-146.93;27.40
21664;BME280;10993;52.510;13.456;2023-10-08T12:30:51;57569.25;;;-146.93;28.49
21664;BME280;10993;52.510;13.456;2023-10-08T12:35:57;57589.50;;;-146.93;28.44
21664;BME280;10993;52.510;13.456;2023-10-08T12:40:57;57504.44;;;-146.93;28.27
21664;BME280;10993;52.510;13.456;2023-10-08T12:45:59;57299.88;;;-146.93;28.59
21664;BME280;10993;52.510;13.456;2023-10-08T12:51:04;57332.28;;;-146.93;28.89
21664;BME280;10993;52.510;13.456;2023-10-08T12:56:08;57378.88;;;-146.93;29.74
21664;BME280;10993;52.510;13.456;2023-10-08T13:01:15;57459.88;;;-146.93;27.73
21664;BME280;10993;52.510;13.456;2023-10-08T13:06:20;57389.00;;;-146.93;27.37
21664;BME280;10993;52.510;13.456;2023-10-08T13:11:28;57382.91;;;-146.93;29.47
21664;BME280;10993;52.510;13.456;2023-10-08T13:16:34;57334.31;;;-146.93;29.01
21664;BME280;10993;52.510;13.456;2023-10-08T13:21:38;57239.13;;;-146.93;28.98
21664;BME280;10993;52.510;13.456;2023-10-08T13:26:39;57249.25;;;-146.93;30.36
21664;BME280;10993;52.510;13.456;2023-10-08T13:31:39;56945.50;;;-146.93;30.26
21664;BME280;10993;52.510;13.456;2023-10-08T13:36:41;57081.19;;;-146.93;31.21
21664;BME280;10993;52.510;13.456;2023-10-08T13:41:42;57002.19;;;-146.93;31.06
21664;BME280;10993;52.510;13.456;2023-10-08T13:46:42;56945.50;;;-146.93;30.81
21664;BME280;10993;52.510;13.456;2023-10-08T13:51:50;56994.09;;;-146.93;31.12
21664;BME280;10993;52.510;13.456;2023-10-08T13:56:56;57006.25;;;-146.93;31.72
21664;BME280;10993;52.510;13.456;2023-10-08T14:01:56;56973.84;;;-146.93;32.68
21664;BME280;10993;52.510;13.456;2023-10-08T14:06:58;57008.28;;;-146.93;31.87
21664;BME280;10993;52.510;13.456;2023-10-08T14:11:58;56957.66;;;-146.93;32.14
21664;BME280;10993;52.510;13.456;2023-10-08T14:17:00;56726.81;;;-146.93;32.40
21664;BME280;10993;52.510;13.456;2023-10-08T14:22:07;56951.59;;;-146.93;32.47
21664;BME280;10993;52.510;13.456;2023-10-08T14:27:08;56854.38;;;-146.93;32.58
21664;BME280;10993;52.510;13.456;2023-10-08T14:32:15;56909.06;;;-146.93;31.82
21664;BME280;10993;52.510;13.456;2023-10-08T14:37:17;56900.97;;;-146.93;32.97
21664;BME280;10993;52.510;13.456;2023-10-08T14:42:36;56874.63;;;-146.93;33.82
21664;BME280;10993;52.510;13.456;2023-10-08T14:47:55;56870.59;;;-146.93;34.34
21664;BME280;10993;52.510;13.456;2023-10-08T14:52:57;56787.56;;;-146.93;35.24
21664;BME280;10993;52.510;13.456;2023-10-08T14:58:01;56925.25;;;-146.93;35.65
21664;BME280;10993;52.510;13.456;2023-10-08T15:03:07;56872.59;;;-146.93;34.61
21664;BME280;10993;52.510;13.456;2023-10-08T15:08:10;56896.91;;;-146.93;35.76
21664;BME280;10993;52.510;13.456;2023-10-08T15:13:10;56870.59;;;-146.93;35.23
21664;BME280;10993;52.510;13.456;2023-10-08T15:18:11;56842.22;;;-146.93;34.62
21664;BME280;10993;52.510;13.456;2023-10-08T15:23:13;56864.50;;;-146.93;35.45
21664;BME280;10993;52.510;13.456;2023-10-08T15:28:13;56858.44;;;-146.93;35.56
21664;BME280;10993;52.510;13.456;2023-10-08T15:33:14;56793.63;;;-146.93;35.13
21664;BME280;10993;52.510;13.456;2023-10-08T15:38:15;56866.53;;;-146.93;35.09
21664;BME280;10993;52.510;13.456;2023-10-08T15:43:16;56850.34;;;-146.93;35.49
21664;BME280;10993;52.510;13.456;2023-10-08T15:48:16;56826.03;;;-146.93;36.59
21664;BME280;10993;52.510;13.456;2023-10-08T15:53:18;56811.88;;;-146.93;36.48
21664;BME280;10993;52.510;13.456;2023-10-08T15:58:18;56797.69;;;-146.93;37.25
21664;BME280;10993;52.510;13.456;2023-10-08T16:03:19;56747.06;;;-146.93;36.21
21664;BME280;10993;52.510;13.456;2023-10-08T16:08:20;56791.63;;;-146.93;36.55
21664;BME280;10993;52.510;13.456;2023-10-08T16:13:21;56822.00;;;-146.93;37.34
21664;BME280;10993;52.510;13.456;2023-10-08T16:18:21;56813.88;;;-146.93;37.19
21664;BME280;10993;52.510;13.456;2023-10-08T16:23:23;56791.63;;;-146.93;37.27
21664;BME280;10993;52.510;13.456;2023-10-08T16:28:24;56736.94;;;-146.93;37.70
21664;BME280;10993;52.510;13.456;2023-10-08T16:33:25;56710.63;;;-146.93;38.19
21664;BME280;10993;52.510;13.456;2023-10-08T16:38:31;56684.31;;;-146.93;39.11
21664;BME280;10993;52.510;13.456;2023-10-08T16:43:31;56749.09;;;-146.93;38.73
21664;BME280;10993;52.510;13.456;2023-10-08T16:48:32;56738.97;;;-146.93;38.78
21664;BME280;10993;52.510;13.456;2023-10-08T16:53:33;56710.63;;;-146.93;39.10
21664;BME280;10993;52.510;13.456;2023-10-08T16:58:34;56732.91;;;-146.93;39.52
21664;BME280;10993;52.510;13.456;2023-10-08T17:03:34;56765.28;;;-146.93;38.45
21664;BME280;10993;52.510;13.456;2023-10-08T17:08:36;56751.13;;;-146.93;39.82
21664;BME280;10993;52.510;13.456;2023-10-08T17:13:41;56743.03;;;-146.93;40.09
21664;BME280;10993;52.510;13.456;2023-10-08T17:18:41;56747.06;;;-146.93;39.94
21664;BME280;10993;52.510;13.456;2023-10-08T17:23:44;56633.69;;;-146.93;38.60
21664;BME280;10993;52.510;13.456;2023-10-08T17:28:45;56751.13;;;-146.93;39.05
21664;BME280;10993;52.510;13.456;2023-10-08T17:33:45;57366.72;;;-146.93;38.73
21664;BME280;10993;52.510;13.456;2023-10-08T17:38:47;56712.66;;;-146.93;38.30
21664;BME280;10993;52.510;13.456;2023-10-08T17:43:47;56767.31;;;-146.93;38.65
21664;BME280;10993;52.510;13.456;2023-10-08T17:48:49;56767.31;;;-146.93;37.46
21664;BME280;10993;52.510;13.456;2023-10-08T17:53:50;56732.91;;;-146.93;37.59
21664;BME280;10993;52.510;13.456;2023-10-08T17:58:51;56738.97;;;-146.93;37.57
21664;BME280;10993;52.510;13.456;2023-10-08T18:03:51;56743.03;;;-146.93;36.59
21664;BME280;10993;52.510;13.456;2023-10-08T18:08:52;56714.66;;;-146.93;38.27
21664;BME280;10993;52.510;13.456;2023-10-08T18:13:54;56710.63;;;-146.93;37.44
21664;BME280;10993;52.510;13.456;2023-10-08T18:18:56;56662.03;;;-146.93;38.65
21664;BME280;10993;52.510;13.456;2023-10-08T18:23:57;56698.47;;;-146.93;40.22
21664;BME280;10993;52.510;13.456;2023-10-08T18:28:58;56662.03;;;-146.93;41.71
21664;BME280;10993;52.510;13.456;2023-10-08T18:33:59;56635.72;;;-146.93;42.93
21664;BME280;10993;52.510;13.456;2023-10-08T18:39:00;56641.78;;;-146.93;43.74
21664;BME280;10993;52.510;13.456;2023-10-08T18:44:00;56603.31;;;-146.93;45.36
21664;BME280;10993;52.510;13.456;2023-10-08T18:49:01;56674.19;;;-146.93;47.72
21664;BME280;10993;52.510;13.456;2023-10-08T18:54:04;56617.47;;;-146.93;48.68
21664;BME280;10993;52.510;13.456;2023-10-08T18:59:06;56583.06;;;-146.93;50.26
21664;BME280;10993;52.510;13.456;2023-10-08T19:04:09;56641.78;;;-146.93;49.96
21664;BME280;10993;52.510;13.456;2023-10-08T19:09:10;56633.69;;;-146.93;50.19
21664;BME280;10993;52.510;13.456;2023-10-08T19:14:11;57451.78;;;-146.93;51.27
21664;BME280;10993;52.510;13.456;2023-10-08T19:19:14;56629.63;;;-146.93;51.92
21664;BME280;10993;52.510;13.456;2023-10-08T19:24:16;56615.47;;;-146.93;51.96
21664;BME280;10993;52.510;13.456;2023-10-08T19:29:16;56662.03;;;-146.93;53.29
21664;BME280;10993;52.510;13.456;2023-10-08T19:34:18;56625.59;;;-146.93;52.08
21664;BME280;10993;52.510;13.456;2023-10-08T19:39:21;56613.44;;;-146.93;52.41
21664;BME280;10993;52.510;13.456;2023-10-08T19:44:21;56605.34;;;-146.93;53.25
21664;BME280;10993;52.510;13.456;2023-10-08T19:49:22;56613.44;;;-146.93;52.74
21664;BME280;10993;52.510;13.456;2023-10-08T19:54:23;56593.19;;;-146.93;55.17
21664;BME280;10993;52.510;13.456;2023-10-08T19:59:25;56627.59;;;-146.93;54.52
21664;BME280;10993;52.510;13.456;2023-10-08T20:04:26;56605.34;;;-146.93;55.82
21664;BME280;10993;52.510;13.456;2023-10-08T20:09:29;56603.31;;;-146.93;55.48
21664;BME280;10993;52.510;13.456;2023-10-08T20:14:30;56593.19;;;-146.93;55.74
21664;BME280;10993;52.510;13.456;2023-10-08T20:19:31;56605.34;;;-146.93;54.88
21664;BME280;10993;52.510;13.456;2023-10-08T20:24:32;56603.31;;;-146.93;55.36
21664;BME280;10993;52.510;13.456;2023-10-08T20:29:33;56603.31;;;-146.93;56.90
21664;BME280;10993;52.510;13.456;2023-10-08T20:34:33;56577.00;;;-146.93;55.72
21664;BME280;10993;52.510;13.456;2023-10-08T20:39:35;57210.78;;;-146.93;55.33
21664;BME280;10993;52.510;13.456;2023-10-08T20:44:39;56589.13;;;-146.93;56.39
21664;BME280;10993;52.510;13.456;2023-10-08T20:49:39;56570.91;;;-146.93;56.33
21664;BME280;10993;52.510;13.456;2023-10-08T20:54:41;56516.25;;;-146.93;57.01
21664;BME280;10993;52.510;13.456;2023-10-08T20:59:42;56585.09;;;-146.93;57.94
21664;BME280;10993;52.510;13.456;2023-10-08T21:04:42;56564.84;;;-146.93;57.95
21664;BME280;10993;52.510;13.456;2023-10-08T21:09:44;56601.28;;;-146.93;58.20
21664;BME280;10993;52.510;13.456;2023-10-08T21:14:44;56587.13;;;-146.93;59.49
21664;BME280;10993;52.510;13.456;2023-10-08T21:19:45;56585.09;;;-146.93;60.09
21664;BME280;10993;52.510;13.456;2023-10-08T21:24:46;56609.38;;;-146.93;60.53
21664;BME280;10993;52.510;13.456;2023-10-08T21:29:48;56585.09;;;-146.93;60.94
21664;BME280;10993;52.510;13.456;2023-10-08T21:34:48;56556.75;;;-146.93;61.30
21664;BME280;10993;52.510;13.456;2023-10-08T21:39:51;56601.28;;;-146.93;63.23
21664;BME280;10993;52.510;13.456;2023-10-08T21:44:52;56520.28;;;-146.93;63.73
21664;BME280;10993;52.510;13.456;2023-10-08T21:49:52;56605.34;;;-146.93;63.57
21664;BME280;10993;52.510;13.456;2023-10-08T21:54:54;56544.59;;;-146.93;64.11
21664;BME280;10993;52.510;13.456;2023-10-08T21:59:54;56585.09;;;-146.93;62.74
21664;BME280;10993;52.510;13.456;2023-10-08T22:04:54;56506.13;;;-146.93;62.35
21664;BME280;10993;52.510;13.456;2023-10-08T22:09:56;56536.50;;;-146.93;62.87
21664;BME280;10993;52.510;13.456;2023-10-08T22:14:57;56619.50;;;-146.93;64.34
21664;BME280;10993;52.510;13.456;2023-10-08T22:20:07;56552.69;;;-146.93;65.58
21664;BME280;10993;52.510;13.456;2023-10-08T22:25:10;56522.31;;;-146.93;65.48
21664;BME280;10993;52.510;13.456;2023-10-08T22:30:13;56585.09;;;-146.93;66.30
21664;BME280;10993;52.510;13.456;2023-10-08T22:35:26;56562.81;;;-146.93;65.85
21664;BME280;10993;52.510;13.456;2023-10-08T22:40:30;56572.94;;;-146.93;66.32
21664;BME280;10993;52.510;13.456;2023-10-08T22:45:48;56564.84;;;-146.93;66.98
21664;BME280;10993;52.510;13.456;2023-10-08T22:50:50;56560.78;;;-146.93;66.76
21664;BME280;10993;52.510;13.456;2023-10-08T22:55:52;56564.84;;;-146.93;66.35
21664;BME280;10993;52.510;13.456;2023-10-08T23:00:52;56601.28;;;-146.93;65.93
21664;BME280;10993;52.510;13.456;2023-10-08T23:05:53;56524.34;;;-146.93;66.49
21664;BME280;10993;52.510;13.456;2023-10-08T23:10:54;56518.28;;;-146.93;66.66
21664;BME280;10993;52.510;13.456;2023-10-08T23:15:55;56552.69;;;-146.93;67.24
21664;BME280;10993;52.510;13.456;2023-10-08T23:20:56;56550.66;;;-146.93;68.39
21664;BME280;10993;52.510;13.456;2023-10-08T23:25:58;56556.75;;;-146.93;69.13
21664;BME280;10993;52.510;13.456;2023-10-08T23:31:01;56558.75;;;-146.93;69.49
21664;BME280;10993;52.510;13.456;2023-10-08T23:36:03;56603.31;;;-146.93;71.86
21664;BME280;10993;52.510;13.456;2023-10-08T23:41:10;56522.31;;;-146.93;75.53
21664;BME280;10993;52.510;13.456;2023-10-08T23:46:17;56489.94;;;-146.93;78.04
21664;BME280;10993;52.510;13.456;2023-10-08T23:51:22;56572.94;;;-146.93;80.83
21664;BME280;10993;52.510;13.456;2023-10-08T23:56:33;56534.47;;;-146.93;80.88
